Decoded Metar for LEPP (PAMPLONA in SPAIN) (IATA:PNA) | Meteo·Mobile Aviation Weather
aviador You're here:

LEPP Decoded Metar

PAMPLONA in SPAIN
Report Time2019-09-17 00:00:00
UTC Time2019-09-17 00:32:52
Flight Rules vfr VFR
Wind270° at 02 kt
W.Decomp.*RWY 33: 1.0 kt HW 1.7 kt LCW
Visibility9999 m
Phenomena:N/A
Clouds:N/A
Expected CloudBase > 1,200 ft AGL from Temp-Dew spread
CeilingNone
Temp19°C (ISA +7)
Dew Point16°C (83% RH)
QNH1020 hPa
Density Alt2,336 ft
Elevation1,506 ft
Report Wrong Elevation
Raw Report
LEPP 170000Z AUTO 27002KT 9999 NCD 19/16 Q1020=

Extra information for LEPP:More info

Metar Taf Metar & Taf Last 4 Metars F.Rules Stats Wind Profile Meteogram Temp Stats Airport Information Weather charts Add Link Nearby VenuesMetar ALERT Operation Metar Decoded Social comments